sensor_id;sensor_type;location;lat;lon;timestamp;P1;durP1;ratioP1;P2;durP2;ratioP2
50213;SDS011;36103;54.176;12.070;2024-03-17T00:00:24;4.00;;;1.70;;
50213;SDS011;36103;54.176;12.070;2024-03-17T00:01:25;2.47;;;1.40;;
50213;SDS011;36103;54.176;12.070;2024-03-17T00:02:27;3.60;;;1.55;;
50213;SDS011;36103;54.176;12.070;2024-03-17T00:03:28;3.00;;;1.42;;
50213;SDS011;36103;54.176;12.070;2024-03-17T00:04:30;2.40;;;1.43;;
50213;SDS011;36103;54.176;12.070;2024-03-17T00:05:32;4.07;;;1.77;;
50213;SDS011;36103;54.176;12.070;2024-03-17T00:06:33;3.13;;;1.60;;
50213;SDS011;36103;54.176;12.070;2024-03-17T00:07:34;2.50;;;1.53;;
50213;SDS011;36103;54.176;12.070;2024-03-17T00:08:35;2.43;;;1.40;;
50213;SDS011;36103;54.176;12.070;2024-03-17T00:09:36;2.97;;;1.40;;
50213;SDS011;36103;54.176;12.070;2024-03-17T00:10:37;2.33;;;1.40;;
50213;SDS011;36103;54.176;12.070;2024-03-17T00:11:38;1.93;;;1.30;;
50213;SDS011;36103;54.176;12.070;2024-03-17T00:12:40;3.60;;;1.50;;
50213;SDS011;36103;54.176;12.070;2024-03-17T00:13:41;3.10;;;1.60;;
50213;SDS011;36103;54.176;12.070;2024-03-17T00:14:42;2.87;;;1.27;;
50213;SDS011;36103;54.176;12.070;2024-03-17T00:15:43;2.03;;;1.20;;
50213;SDS011;36103;54.176;12.070;2024-03-17T00:16:44;3.03;;;1.40;;
50213;SDS011;36103;54.176;12.070;2024-03-17T00:17:46;3.07;;;1.40;;
50213;SDS011;36103;54.176;12.070;2024-03-17T00:18:47;3.60;;;1.30;;
50213;SDS011;36103;54.176;12.070;2024-03-17T00:19:48;1.80;;;1.15;;
50213;SDS011;36103;54.176;12.070;2024-03-17T00:20:49;2.33;;;1.30;;
50213;SDS011;36103;54.176;12.070;2024-03-17T00:21:51;3.20;;;1.30;;
50213;SDS011;36103;54.176;12.070;2024-03-17T00:22:52;3.20;;;1.50;;
50213;SDS011;36103;54.176;12.070;2024-03-17T00:23:53;2.83;;;1.30;;
50213;SDS011;36103;54.176;12.070;2024-03-17T00:24:54;1.60;;;1.10;;
50213;SDS011;36103;54.176;12.070;2024-03-17T00:25:57;2.97;;;1.40;;
50213;SDS011;36103;54.176;12.070;2024-03-17T00:26:58;1.70;;;1.43;;
50213;SDS011;36103;54.176;12.070;2024-03-17T00:27:59;3.13;;;1.30;;
50213;SDS011;36103;54.176;12.070;2024-03-17T00:29:01;1.93;;;1.17;;
50213;SDS011;36103;54.176;12.070;2024-03-17T00:30:04;3.33;;;1.63;;
50213;SDS011;36103;54.176;12.070;2024-03-17T00:31:09;2.73;;;1.40;;
50213;SDS011;36103;54.176;12.070;2024-03-17T00:32:10;2.83;;;1.20;;
50213;SDS011;36103;54.176;12.070;2024-03-17T00:33:13;2.43;;;1.40;;
50213;SDS011;36103;54.176;12.070;2024-03-17T00:34:14;1.67;;;1.20;;
50213;SDS011;36103;54.176;12.070;2024-03-17T00:35:15;1.97;;;1.07;;
50213;SDS011;36103;54.176;12.070;2024-03-17T00:36:21;4.77;;;1.43;;
50213;SDS011;36103;54.176;12.070;2024-03-17T00:37:22;1.60;;;0.93;;
50213;SDS011;36103;54.176;12.070;2024-03-17T00:38:23;1.83;;;1.03;;
50213;SDS011;36103;54.176;12.070;2024-03-17T00:39:24;2.27;;;1.27;;
50213;SDS011;36103;54.176;12.070;2024-03-17T00:40:25;2.40;;;1.30;;
50213;SDS011;36103;54.176;12.070;2024-03-17T00:41:27;1.80;;;1.13;;
50213;SDS011;36103;54.176;12.070;2024-03-17T00:42:28;2.10;;;1.37;;
50213;SDS011;36103;54.176;12.070;2024-03-17T00:43:30;3.97;;;1.20;;
50213;SDS011;36103;54.176;12.070;2024-03-17T00:44:31;2.23;;;1.10;;
50213;SDS011;36103;54.176;12.070;2024-03-17T00:45:32;4.43;;;1.53;;
50213;SDS011;36103;54.176;12.070;2024-03-17T00:46:33;4.57;;;1.60;;
50213;SDS011;36103;54.176;12.070;2024-03-17T00:47:35;2.57;;;1.20;;
50213;SDS011;36103;54.176;12.070;2024-03-17T00:48:36;1.80;;;1.00;;
50213;SDS011;36103;54.176;12.070;2024-03-17T00:49:37;2.03;;;1.10;;
50213;SDS011;36103;54.176;12.070;2024-03-17T00:50:39;2.57;;;1.30;;
50213;SDS011;36103;54.176;12.070;2024-03-17T00:51:40;1.40;;;1.13;;
50213;SDS011;36103;54.176;12.070;2024-03-17T00:52:43;2.13;;;1.20;;
50213;SDS011;36103;54.176;12.070;2024-03-17T00:53:44;2.47;;;1.30;;
50213;SDS011;36103;54.176;12.070;2024-03-17T00:54:46;2.80;;;1.10;;
50213;SDS011;36103;54.176;12.070;2024-03-17T00:55:50;1.40;;;0.90;;
50213;SDS011;36103;54.176;12.070;2024-03-17T00:56:52;1.43;;;1.00;;
50213;SDS011;36103;54.176;12.070;2024-03-17T00:57:53;2.57;;;1.20;;
50213;SDS011;36103;54.176;12.070;2024-03-17T00:58:54;1.47;;;1.10;;
50213;SDS011;36103;54.176;12.070;2024-03-17T00:59:56;2.43;;;1.17;;
50213;SDS011;36103;54.176;12.070;2024-03-17T01:00:57;2.00;;;1.10;;
50213;SDS011;36103;54.176;12.070;2024-03-17T01:01:58;2.40;;;1.20;;
50213;SDS011;36103;54.176;12.070;2024-03-17T01:02:59;2.70;;;1.10;;
50213;SDS011;36103;54.176;12.070;2024-03-17T01:04:01;2.20;;;1.37;;
50213;SDS011;36103;54.176;12.070;2024-03-17T01:05:03;1.70;;;0.90;;
50213;SDS011;36103;54.176;12.070;2024-03-17T01:06:05;1.37;;;1.07;;
50213;SDS011;36103;54.176;12.070;2024-03-17T01:07:07;1.73;;;1.10;;
50213;SDS011;36103;54.176;12.070;2024-03-17T01:08:08;1.53;;;1.00;;
50213;SDS011;36103;54.176;12.070;2024-03-17T01:09:10;2.03;;;1.13;;
50213;SDS011;36103;54.176;12.070;2024-03-17T01:10:10;2.17;;;1.00;;
50213;SDS011;36103;54.176;12.070;2024-03-17T01:11:14;1.67;;;0.90;;
50213;SDS011;36103;54.176;12.070;2024-03-17T01:12:15;1.90;;;1.00;;
50213;SDS011;36103;54.176;12.070;2024-03-17T01:13:16;1.27;;;0.90;;
50213;SDS011;36103;54.176;12.070;2024-03-17T01:14:18;3.30;;;1.00;;
50213;SDS011;36103;54.176;12.070;2024-03-17T01:15:19;2.00;;;0.90;;
50213;SDS011;36103;54.176;12.070;2024-03-17T01:16:20;2.10;;;1.20;;
50213;SDS011;36103;54.176;12.070;2024-03-17T01:17:22;3.80;;;1.07;;
50213;SDS011;36103;54.176;12.070;2024-03-17T01:18:24;2.10;;;1.00;;
50213;SDS011;36103;54.176;12.070;2024-03-17T01:19:26;1.43;;;1.10;;
50213;SDS011;36103;54.176;12.070;2024-03-17T01:20:27;1.40;;;0.90;;
50213;SDS011;36103;54.176;12.070;2024-03-17T01:21:28;1.80;;;1.10;;
50213;SDS011;36103;54.176;12.070;2024-03-17T01:22:29;2.07;;;1.17;;
50213;SDS011;36103;54.176;12.070;2024-03-17T01:23:30;2.57;;;0.90;;
50213;SDS011;36103;54.176;12.070;2024-03-17T01:24:33;1.27;;;1.00;;
50213;SDS011;36103;54.176;12.070;2024-03-17T01:25:34;1.20;;;0.90;;
50213;SDS011;36103;54.176;12.070;2024-03-17T01:26:37;0.87;;;0.70;;
50213;SDS011;36103;54.176;12.070;2024-03-17T01:27:38;1.63;;;1.03;;
50213;SDS011;36103;54.176;12.070;2024-03-17T01:28:40;1.00;;;0.90;;
50213;SDS011;36103;54.176;12.070;2024-03-17T01:29:41;1.60;;;0.87;;
50213;SDS011;36103;54.176;12.070;2024-03-17T01:30:42;1.60;;;1.00;;
50213;SDS011;36103;54.176;12.070;2024-03-17T01:31:43;1.13;;;0.90;;
50213;SDS011;36103;54.176;12.070;2024-03-17T01:32:44;1.60;;;1.10;;
50213;SDS011;36103;54.176;12.070;2024-03-17T01:33:46;0.97;;;0.80;;
50213;SDS011;36103;54.176;12.070;2024-03-17T01:34:48;1.60;;;0.90;;
50213;SDS011;36103;54.176;12.070;2024-03-17T01:35:49;1.90;;;1.07;;
50213;SDS011;36103;54.176;12.070;2024-03-17T01:36:50;2.97;;;1.10;;
50213;SDS011;36103;54.176;12.070;2024-03-17T01:37:51;1.13;;;0.77;;
50213;SDS011;36103;54.176;12.070;2024-03-17T01:38:52;1.30;;;0.90;;
50213;SDS011;36103;54.176;12.070;2024-03-17T01:39:54;2.03;;;1.10;;
50213;SDS011;36103;54.176;12.070;2024-03-17T01:40:55;1.80;;;1.00;;
50213;SDS011;36103;54.176;12.070;2024-03-17T01:41:57;2.03;;;0.93;;
50213;SDS011;36103;54.176;12.070;2024-03-17T01:42:59;1.63;;;1.10;;
50213;SDS011;36103;54.176;12.070;2024-03-17T01:44:00;1.80;;;0.93;;
50213;SDS011;36103;54.176;12.070;2024-03-17T01:45:01;1.60;;;1.00;;
50213;SDS011;36103;54.176;12.070;2024-03-17T01:46:25;1.67;;;1.00;;
50213;SDS011;36103;54.176;12.070;2024-03-17T01:47:28;1.03;;;0.80;;
50213;SDS011;36103;54.176;12.070;2024-03-17T01:48:29;1.90;;;1.10;;
50213;SDS011;36103;54.176;12.070;2024-03-17T01:49:30;1.73;;;0.90;;
50213;SDS011;36103;54.176;12.070;2024-03-17T01:50:33;1.07;;;0.80;;
50213;SDS011;36103;54.176;12.070;2024-03-17T01:51:36;2.00;;;1.03;;
50213;SDS011;36103;54.176;12.070;2024-03-17T01:52:37;1.37;;;0.90;;
50213;SDS011;36103;54.176;12.070;2024-03-17T01:53:38;1.23;;;1.00;;
50213;SDS011;36103;54.176;12.070;2024-03-17T01:54:40;1.60;;;1.00;;
50213;SDS011;36103;54.176;12.070;2024-03-17T01:55:42;1.10;;;0.90;;
50213;SDS011;36103;54.176;12.070;2024-03-17T01:56:44;1.10;;;0.80;;
50213;SDS011;36103;54.176;12.070;2024-03-17T01:57:45;1.20;;;0.90;;
50213;SDS011;36103;54.176;12.070;2024-03-17T01:58:47;1.07;;;0.80;;
50213;SDS011;36103;54.176;12.070;2024-03-17T01:59:48;1.13;;;0.90;;
50213;SDS011;36103;54.176;12.070;2024-03-17T02:00:50;0.80;;;0.80;;
50213;SDS011;36103;54.176;12.070;2024-03-17T02:01:52;1.77;;;0.90;;
50213;SDS011;36103;54.176;12.070;2024-03-17T02:02:53;1.00;;;0.83;;
50213;SDS011;36103;54.176;12.070;2024-03-17T02:03:54;0.80;;;0.63;;
50213;SDS011;36103;54.176;12.070;2024-03-17T02:04:55;1.43;;;1.00;;
50213;SDS011;36103;54.176;12.070;2024-03-17T02:05:58;1.33;;;1.10;;
50213;SDS011;36103;54.176;12.070;2024-03-17T02:06:59;1.90;;;1.23;;
50213;SDS011;36103;54.176;12.070;2024-03-17T02:08:00;2.13;;;1.10;;
50213;SDS011;36103;54.176;12.070;2024-03-17T02:09:02;1.43;;;0.90;;
50213;SDS011;36103;54.176;12.070;2024-03-17T02:10:03;1.10;;;0.60;;
50213;SDS011;36103;54.176;12.070;2024-03-17T02:11:05;1.00;;;0.77;;
50213;SDS011;36103;54.176;12.070;2024-03-17T02:12:12;1.53;;;0.77;;
50213;SDS011;36103;54.176;12.070;2024-03-17T02:13:13;1.17;;;0.80;;
50213;SDS011;36103;54.176;12.070;2024-03-17T02:14:14;2.33;;;0.87;;
50213;SDS011;36103;54.176;12.070;2024-03-17T02:15:17;1.83;;;1.10;;
50213;SDS011;36103;54.176;12.070;2024-03-17T02:16:18;0.67;;;0.60;;
50213;SDS011;36103;54.176;12.070;2024-03-17T02:17:20;1.83;;;1.00;;
50213;SDS011;36103;54.176;12.070;2024-03-17T02:18:21;1.13;;;0.77;;
50213;SDS011;36103;54.176;12.070;2024-03-17T02:19:23;1.17;;;0.90;;
50213;SDS011;36103;54.176;12.070;2024-03-17T02:20:24;1.30;;;0.90;;
50213;SDS011;36103;54.176;12.070;2024-03-17T02:21:46;1.53;;;1.00;;
50213;SDS011;36103;54.176;12.070;2024-03-17T02:22:48;1.60;;;0.80;;
50213;SDS011;36103;54.176;12.070;2024-03-17T02:23:49;1.37;;;1.00;;
50213;SDS011;36103;54.176;12.070;2024-03-17T02:24:51;1.00;;;0.70;;
50213;SDS011;36103;54.176;12.070;2024-03-17T02:25:53;1.20;;;0.80;;
50213;SDS011;36103;54.176;12.070;2024-03-17T02:26:54;0.53;;;0.53;;
50213;SDS011;36103;54.176;12.070;2024-03-17T02:27:55;1.17;;;1.00;;
50213;SDS011;36103;54.176;12.070;2024-03-17T02:28:56;0.97;;;0.60;;
50213;SDS011;36103;54.176;12.070;2024-03-17T02:29:57;1.07;;;0.80;;
50213;SDS011;36103;54.176;12.070;2024-03-17T02:30:58;1.13;;;0.90;;
50213;SDS011;36103;54.176;12.070;2024-03-17T02:31:59;1.10;;;0.73;;
50213;SDS011;36103;54.176;12.070;2024-03-17T02:33:04;0.83;;;0.80;;
50213;SDS011;36103;54.176;12.070;2024-03-17T02:34:06;0.80;;;0.80;;
50213;SDS011;36103;54.176;12.070;2024-03-17T02:35:07;1.00;;;0.73;;
50213;SDS011;36103;54.176;12.070;2024-03-17T02:36:08;1.30;;;0.70;;
50213;SDS011;36103;54.176;12.070;2024-03-17T02:37:10;0.93;;;0.80;;
50213;SDS011;36103;54.176;12.070;2024-03-17T02:38:15;1.00;;;0.80;;
50213;SDS011;36103;54.176;12.070;2024-03-17T02:39:37;2.00;;;0.90;;
50213;SDS011;36103;54.176;12.070;2024-03-17T02:40:39;0.80;;;0.70;;
50213;SDS011;36103;54.176;12.070;2024-03-17T02:41:42;0.77;;;0.70;;
50213;SDS011;36103;54.176;12.070;2024-03-17T02:42:43;1.23;;;0.70;;
50213;SDS011;36103;54.176;12.070;2024-03-17T02:43:45;0.80;;;0.60;;
50213;SDS011;36103;54.176;12.070;2024-03-17T02:44:47;0.87;;;0.73;;
50213;SDS011;36103;54.176;12.070;2024-03-17T02:45:48;0.90;;;0.70;;
50213;SDS011;36103;54.176;12.070;2024-03-17T02:46:49;1.00;;;0.80;;
50213;SDS011;36103;54.176;12.070;2024-03-17T02:47:51;1.57;;;0.60;;
50213;SDS011;36103;54.176;12.070;2024-03-17T02:48:52;0.57;;;0.57;;
50213;SDS011;36103;54.176;12.070;2024-03-17T02:49:56;1.13;;;0.80;;
50213;SDS011;36103;54.176;12.070;2024-03-17T02:50:57;1.07;;;0.70;;
50213;SDS011;36103;54.176;12.070;2024-03-17T02:51:59;0.60;;;0.60;;
50213;SDS011;36103;54.176;12.070;2024-03-17T02:52:59;0.57;;;0.50;;
50213;SDS011;36103;54.176;12.070;2024-03-17T02:54:04;0.53;;;0.53;;
50213;SDS011;36103;54.176;12.070;2024-03-17T02:55:06;0.80;;;0.73;;
50213;SDS011;36103;54.176;12.070;2024-03-17T02:56:08;2.30;;;0.77;;
50213;SDS011;36103;54.176;12.070;2024-03-17T02:57:09;0.77;;;0.70;;
50213;SDS011;36103;54.176;12.070;2024-03-17T02:58:11;0.70;;;0.70;;
50213;SDS011;36103;54.176;12.070;2024-03-17T02:59:12;0.87;;;0.60;;
50213;SDS011;36103;54.176;12.070;2024-03-17T03:00:14;0.93;;;0.70;;
50213;SDS011;36103;54.176;12.070;2024-03-17T03:01:16;1.17;;;0.80;;
50213;SDS011;36103;54.176;12.070;2024-03-17T03:02:17;0.73;;;0.57;;
50213;SDS011;36103;54.176;12.070;2024-03-17T03:03:18;0.87;;;0.70;;
50213;SDS011;36103;54.176;12.070;2024-03-17T03:04:20;1.10;;;0.73;;
50213;SDS011;36103;54.176;12.070;2024-03-17T03:05:21;0.57;;;0.53;;
50213;SDS011;36103;54.176;12.070;2024-03-17T03:06:24;1.00;;;0.70;;
50213;SDS011;36103;54.176;12.070;2024-03-17T03:07:25;1.40;;;0.80;;
50213;SDS011;36103;54.176;12.070;2024-03-17T03:08:27;1.33;;;0.90;;
50213;SDS011;36103;54.176;12.070;2024-03-17T03:09:29;1.50;;;0.90;;
50213;SDS011;36103;54.176;12.070;2024-03-17T03:10:32;0.90;;;0.80;;
50213;SDS011;36103;54.176;12.070;2024-03-17T03:11:35;0.83;;;0.70;;
50213;SDS011;36103;54.176;12.070;2024-03-17T03:12:37;1.30;;;0.70;;
50213;SDS011;36103;54.176;12.070;2024-03-17T03:13:38;1.03;;;0.73;;
50213;SDS011;36103;54.176;12.070;2024-03-17T03:14:39;0.70;;;0.60;;
50213;SDS011;36103;54.176;12.070;2024-03-17T03:15:40;0.83;;;0.80;;
50213;SDS011;36103;54.176;12.070;2024-03-17T03:16:41;0.60;;;0.60;;
50213;SDS011;36103;54.176;12.070;2024-03-17T03:17:43;1.00;;;0.80;;
50213;SDS011;36103;54.176;12.070;2024-03-17T03:18:44;0.60;;;0.60;;
50213;SDS011;36103;54.176;12.070;2024-03-17T03:19:46;0.97;;;0.87;;
50213;SDS011;36103;54.176;12.070;2024-03-17T03:20:50;1.03;;;0.70;;
50213;SDS011;36103;54.176;12.070;2024-03-17T03:21:52;0.60;;;0.60;;
50213;SDS011;36103;54.176;12.070;2024-03-17T03:22:53;0.53;;;0.53;;
50213;SDS011;36103;54.176;12.070;2024-03-17T03:23:54;1.20;;;0.67;;
50213;SDS011;36103;54.176;12.070;2024-03-17T03:24:56;0.87;;;0.70;;
50213;SDS011;36103;54.176;12.070;2024-03-17T03:25:58;1.00;;;0.80;;
50213;SDS011;36103;54.176;12.070;2024-03-17T03:27:00;1.13;;;0.70;;
50213;SDS011;36103;54.176;12.070;2024-03-17T03:28:01;0.67;;;0.60;;
50213;SDS011;36103;54.176;12.070;2024-03-17T03:29:03;0.93;;;0.70;;
50213;SDS011;36103;54.176;12.070;2024-03-17T03:30:05;0.70;;;0.70;;
50213;SDS011;36103;54.176;12.070;2024-03-17T03:31:10;0.70;;;0.60;;
50213;SDS011;36103;54.176;12.070;2024-03-17T03:32:13;0.73;;;0.70;;
50213;SDS011;36103;54.176;12.070;2024-03-17T03:33:15;0.60;;;0.60;;
50213;SDS011;36103;54.176;12.070;2024-03-17T03:34:16;1.23;;;0.70;;
50213;SDS011;36103;54.176;12.070;2024-03-17T03:35:17;1.10;;;0.80;;
50213;SDS011;36103;54.176;12.070;2024-03-17T03:36:18;1.10;;;0.70;;
50213;SDS011;36103;54.176;12.070;2024-03-17T03:37:20;1.23;;;0.70;;
50213;SDS011;36103;54.176;12.070;2024-03-17T03:38:22;0.60;;;0.60;;
50213;SDS011;36103;54.176;12.070;2024-03-17T03:39:23;0.90;;;0.80;;
50213;SDS011;36103;54.176;12.070;2024-03-17T03:40:27;0.77;;;0.70;;
50213;SDS011;36103;54.176;12.070;2024-03-17T03:41:28;1.63;;;0.80;;
50213;SDS011;36103;54.176;12.070;2024-03-17T03:42:30;0.80;;;0.70;;
50213;SDS011;36103;54.176;12.070;2024-03-17T03:43:31;0.80;;;0.80;;
50213;SDS011;36103;54.176;12.070;2024-03-17T03:44:33;0.50;;;0.50;;
50213;SDS011;36103;54.176;12.070;2024-03-17T03:45:34;0.67;;;0.50;;
50213;SDS011;36103;54.176;12.070;2024-03-17T03:46:36;0.80;;;0.70;;
50213;SDS011;36103;54.176;12.070;2024-03-17T03:47:37;0.60;;;0.60;;
50213;SDS011;36103;54.176;12.070;2024-03-17T03:48:38;0.87;;;0.50;;
50213;SDS011;36103;54.176;12.070;2024-03-17T03:49:40;0.83;;;0.60;;
50213;SDS011;36103;54.176;12.070;2024-03-17T03:50:41;0.70;;;0.70;;
50213;SDS011;36103;54.176;12.070;2024-03-17T03:51:44;0.83;;;0.80;;
50213;SDS011;36103;54.176;12.070;2024-03-17T03:52:45;0.53;;;0.53;;
50213;SDS011;36103;54.176;12.070;2024-03-17T03:53:46;1.20;;;0.63;;
50213;SDS011;36103;54.176;12.070;2024-03-17T03:54:47;0.47;;;0.47;;
50213;SDS011;36103;54.176;12.070;2024-03-17T03:55:53;0.53;;;0.53;;
50213;SDS011;36103;54.176;12.070;2024-03-17T03:56:55;0.67;;;0.67;;
50213;SDS011;36103;54.176;12.070;2024-03-17T03:57:56;0.90;;;0.70;;
50213;SDS011;36103;54.176;12.070;2024-03-17T03:58:57;0.80;;;0.70;;
50213;SDS011;36103;54.176;12.070;2024-03-17T03:59:59;0.60;;;0.60;;
50213;SDS011;36103;54.176;12.070;2024-03-17T04:01:00;0.67;;;0.50;;
50213;SDS011;36103;54.176;12.070;2024-03-17T04:02:04;0.47;;;0.47;;
50213;SDS011;36103;54.176;12.070;2024-03-17T04:03:05;0.70;;;0.60;;
50213;SDS011;36103;54.176;12.070;2024-03-17T04:04:07;0.60;;;0.60;;
50213;SDS011;36103;54.176;12.070;2024-03-17T04:05:08;0.60;;;0.57;;
50213;SDS011;36103;54.176;12.070;2024-03-17T04:06:10;0.83;;;0.67;;
50213;SDS011;36103;54.176;12.070;2024-03-17T04:07:11;2.70;;;1.00;;
50213;SDS011;36103;54.176;12.070;2024-03-17T04:08:12;2.03;;;0.80;;
50213;SDS011;36103;54.176;12.070;2024-03-17T04:09:13;0.77;;;0.50;;
50213;SDS011;36103;54.176;12.070;2024-03-17T04:10:14;0.50;;;0.50;;
50213;SDS011;36103;54.176;12.070;2024-03-17T04:11:16;1.03;;;0.80;;
50213;SDS011;36103;54.176;12.070;2024-03-17T04:12:17;1.03;;;0.70;;
50213;SDS011;36103;54.176;12.070;2024-03-17T04:13:19;0.50;;;0.50;;
50213;SDS011;36103;54.176;12.070;2024-03-17T04:14:19;1.03;;;0.60;;
50213;SDS011;36103;54.176;12.070;2024-03-17T04:15:20;1.07;;;0.70;;
50213;SDS011;36103;54.176;12.070;2024-03-17T04:16:21;1.03;;;0.60;;
50213;SDS011;36103;54.176;12.070;2024-03-17T04:17:22;1.50;;;0.70;;
50213;SDS011;36103;54.176;12.070;2024-03-17T04:18:24;1.57;;;0.63;;
50213;SDS011;36103;54.176;12.070;2024-03-17T04:19:25;0.70;;;0.70;;
50213;SDS011;36103;54.176;12.070;2024-03-17T04:20:26;0.60;;;0.60;;
50213;SDS011;36103;54.176;12.070;2024-03-17T04:21:27;1.10;;;0.70;;
50213;SDS011;36103;54.176;12.070;2024-03-17T04:22:28;0.90;;;0.63;;
50213;SDS011;36103;54.176;12.070;2024-03-17T04:23:29;0.63;;;0.50;;
50213;SDS011;36103;54.176;12.070;2024-03-17T04:24:32;0.60;;;0.60;;
50213;SDS011;36103;54.176;12.070;2024-03-17T04:25:33;2.70;;;0.50;;
50213;SDS011;36103;54.176;12.070;2024-03-17T04:26:34;1.03;;;0.70;;
50213;SDS011;36103;54.176;12.070;2024-03-17T04:27:35;0.53;;;0.50;;
50213;SDS011;36103;54.176;12.070;2024-03-17T04:28:36;1.03;;;0.50;;
50213;SDS011;36103;54.176;12.070;2024-03-17T04:29:38;1.17;;;0.70;;
50213;SDS011;36103;54.176;12.070;2024-03-17T04:30:40;0.50;;;0.50;;
50213;SDS011;36103;54.176;12.070;2024-03-17T04:31:42;0.60;;;0.60;;
50213;SDS011;36103;54.176;12.070;2024-03-17T04:32:43;0.80;;;0.70;;
50213;SDS011;36103;54.176;12.070;2024-03-17T04:33:44;0.50;;;0.50;;
50213;SDS011;36103;54.176;12.070;2024-03-17T04:34:45;0.80;;;0.70;;
50213;SDS011;36103;54.176;12.070;2024-03-17T04:35:46;1.47;;;0.80;;
50213;SDS011;36103;54.176;12.070;2024-03-17T04:36:46;0.73;;;0.60;;
50213;SDS011;36103;54.176;12.070;2024-03-17T04:37:47;0.50;;;0.50;;
50213;SDS011;36103;54.176;12.070;2024-03-17T04:38:48;0.57;;;0.57;;
50213;SDS011;36103;54.176;12.070;2024-03-17T04:39:49;1.17;;;0.70;;
50213;SDS011;36103;54.176;12.070;2024-03-17T04:40:51;0.73;;;0.60;;
50213;SDS011;36103;54.176;12.070;2024-03-17T04:41:52;1.37;;;0.70;;
50213;SDS011;36103;54.176;12.070;2024-03-17T04:42:53;0.53;;;0.50;;
50213;SDS011;36103;54.176;12.070;2024-03-17T04:43:55;0.50;;;0.50;;
50213;SDS011;36103;54.176;12.070;2024-03-17T04:44:56;0.90;;;0.60;;
50213;SDS011;36103;54.176;12.070;2024-03-17T04:46:01;0.70;;;0.70;;
50213;SDS011;36103;54.176;12.070;2024-03-17T04:47:04;0.73;;;0.60;;
50213;SDS011;36103;54.176;12.070;2024-03-17T04:48:07;0.70;;;0.60;;
50213;SDS011;36103;54.176;12.070;2024-03-17T04:49:08;0.50;;;0.50;;
50213;SDS011;36103;54.176;12.070;2024-03-17T04:50:09;0.50;;;0.50;;
50213;SDS011;36103;54.176;12.070;2024-03-17T04:51:14;0.93;;;0.70;;
50213;SDS011;36103;54.176;12.070;2024-03-17T04:52:16;0.90;;;0.60;;
50213;SDS011;36103;54.176;12.070;2024-03-17T04:53:16;2.20;;;0.70;;
50213;SDS011;36103;54.176;12.070;2024-03-17T04:54:17;0.60;;;0.50;;
50213;SDS011;36103;54.176;12.070;2024-03-17T04:55:18;0.80;;;0.60;;
50213;SDS011;36103;54.176;12.070;2024-03-17T04:56:19;0.47;;;0.47;;
50213;SDS011;36103;54.176;12.070;2024-03-17T04:57:21;1.47;;;0.40;;
50213;SDS011;36103;54.176;12.070;2024-03-17T04:58:22;1.60;;;0.60;;
50213;SDS011;36103;54.176;12.070;2024-03-17T04:59:22;0.97;;;0.40;;
50213;SDS011;36103;54.176;12.070;2024-03-17T05:00:24;0.90;;;0.67;;
50213;SDS011;36103;54.176;12.070;2024-03-17T05:01:25;0.67;;;0.50;;
50213;SDS011;36103;54.176;12.070;2024-03-17T05:02:26;0.80;;;0.60;;
50213;SDS011;36103;54.176;12.070;2024-03-17T05:03:27;1.10;;;0.60;;
50213;SDS011;36103;54.176;12.070;2024-03-17T05:04:28;0.97;;;0.50;;
50213;SDS011;36103;54.176;12.070;2024-03-17T05:05:30;0.77;;;0.67;;
50213;SDS011;36103;54.176;12.070;2024-03-17T05:06:31;0.67;;;0.50;;
50213;SDS011;36103;54.176;12.070;2024-03-17T05:07:32;0.70;;;0.57;;
50213;SDS011;36103;54.176;12.070;2024-03-17T05:08:33;0.50;;;0.50;;
50213;SDS011;36103;54.176;12.070;2024-03-17T05:09:35;0.63;;;0.50;;
50213;SDS011;36103;54.176;12.070;2024-03-17T05:10:35;0.47;;;0.47;;
50213;SDS011;36103;54.176;12.070;2024-03-17T05:11:36;0.50;;;0.40;;
50213;SDS011;36103;54.176;12.070;2024-03-17T05:12:38;1.00;;;0.50;;
50213;SDS011;36103;54.176;12.070;2024-03-17T05:13:39;0.77;;;0.63;;
50213;SDS011;36103;54.176;12.070;2024-03-17T05:14:40;0.50;;;0.50;;
50213;SDS011;36103;54.176;12.070;2024-03-17T05:15:41;0.50;;;0.50;;
50213;SDS011;36103;54.176;12.070;2024-03-17T05:16:42;1.43;;;0.70;;
50213;SDS011;36103;54.176;12.070;2024-03-17T05:17:42;0.50;;;0.50;;
50213;SDS011;36103;54.176;12.070;2024-03-17T05:18:43;0.70;;;0.60;;
50213;SDS011;36103;54.176;12.070;2024-03-17T05:19:44;2.00;;;0.50;;
50213;SDS011;36103;54.176;12.070;2024-03-17T05:20:45;0.50;;;0.50;;
50213;SDS011;36103;54.176;12.070;2024-03-17T05:21:47;0.50;;;0.50;;
50213;SDS011;36103;54.176;12.070;2024-03-17T05:22:48;1.73;;;0.60;;
50213;SDS011;36103;54.176;12.070;2024-03-17T05:23:50;0.43;;;0.43;;
50213;SDS011;36103;54.176;12.070;2024-03-17T05:24:51;0.67;;;0.50;;
50213;SDS011;36103;54.176;12.070;2024-03-17T05:25:52;1.27;;;0.70;;
50213;SDS011;36103;54.176;12.070;2024-03-17T05:26:52;0.90;;;0.50;;
50213;SDS011;36103;54.176;12.070;2024-03-17T05:27:54;0.53;;;0.50;;
50213;SDS011;36103;54.176;12.070;2024-03-17T05:28:55;1.53;;;0.60;;
50213;SDS011;36103;54.176;12.070;2024-03-17T05:29:55;1.13;;;0.60;;
50213;SDS011;36103;54.176;12.070;2024-03-17T05:30:56;0.50;;;0.50;;
50213;SDS011;36103;54.176;12.070;2024-03-17T05:31:57;1.17;;;0.63;;
50213;SDS011;36103;54.176;12.070;2024-03-17T05:32:58;0.70;;;0.60;;
50213;SDS011;36103;54.176;12.070;2024-03-17T05:33:59;0.50;;;0.50;;
50213;SDS011;36103;54.176;12.070;2024-03-17T05:35:00;0.60;;;0.50;;
50213;SDS011;36103;54.176;12.070;2024-03-17T05:36:02;0.70;;;0.50;;
50213;SDS011;36103;54.176;12.070;2024-03-17T05:37:04;0.60;;;0.50;;
50213;SDS011;36103;54.176;12.070;2024-03-17T05:38:05;0.50;;;0.50;;
50213;SDS011;36103;54.176;12.070;2024-03-17T05:39:10;0.50;;;0.50;;
50213;SDS011;36103;54.176;12.070;2024-03-17T05:40:11;0.50;;;0.50;;
50213;SDS011;36103;54.176;12.070;2024-03-17T05:41:12;1.10;;;0.50;;
50213;SDS011;36103;54.176;12.070;2024-03-17T05:42:13;0.50;;;0.50;;
50213;SDS011;36103;54.176;12.070;2024-03-17T05:43:15;0.53;;;0.50;;
50213;SDS011;36103;54.176;12.070;2024-03-17T05:44:15;0.40;;;0.40;;
50213;SDS011;36103;54.176;12.070;2024-03-17T05:45:17;0.47;;;0.47;;
50213;SDS011;36103;54.176;12.070;2024-03-17T05:46:17;0.57;;;0.57;;
50213;SDS011;36103;54.176;12.070;2024-03-17T05:47:18;0.60;;;0.60;;
50213;SDS011;36103;54.176;12.070;2024-03-17T05:48:19;0.53;;;0.53;;
50213;SDS011;36103;54.176;12.070;2024-03-17T05:49:20;0.80;;;0.60;;
50213;SDS011;36103;54.176;12.070;2024-03-17T05:50:22;0.83;;;0.50;;
50213;SDS011;36103;54.176;12.070;2024-03-17T05:51:23;0.57;;;0.50;;
50213;SDS011;36103;54.176;12.070;2024-03-17T05:52:25;0.50;;;0.50;;
50213;SDS011;36103;54.176;12.070;2024-03-17T05:53:27;0.40;;;0.40;;
50213;SDS011;36103;54.176;12.070;2024-03-17T05:54:27;0.47;;;0.43;;
50213;SDS011;36103;54.176;12.070;2024-03-17T05:55:29;0.50;;;0.50;;
50213;SDS011;36103;54.176;12.070;2024-03-17T05:56:29;0.80;;;0.50;;
50213;SDS011;36103;54.176;12.070;2024-03-17T05:57:30;0.57;;;0.50;;
50213;SDS011;36103;54.176;12.070;2024-03-17T05:58:32;0.43;;;0.43;;
50213;SDS011;36103;54.176;12.070;2024-03-17T05:59:34;0.47;;;0.47;;
50213;SDS011;36103;54.176;12.070;2024-03-17T06:00:35;1.17;;;0.50;;
50213;SDS011;36103;54.176;12.070;2024-03-17T06:01:37;0.93;;;0.50;;
50213;SDS011;36103;54.176;12.070;2024-03-17T06:02:37;0.73;;;0.53;;
50213;SDS011;36103;54.176;12.070;2024-03-17T06:03:38;0.90;;;0.67;;
50213;SDS011;36103;54.176;12.070;2024-03-17T06:04:39;0.50;;;0.50;;
50213;SDS011;36103;54.176;12.070;2024-03-17T06:05:40;0.90;;;0.53;;